sensor_id;sensor_type;location;lat;lon;timestamp;P1;durP1;ratioP1;P2;durP2;ratioP2
47834;SDS011;63086;45.138;10.038;2022-09-09T00:04:35;18.35;;;10.70;;
47834;SDS011;63086;45.138;10.038;2022-09-09T00:09:31;16.42;;;12.07;;
47834;SDS011;63086;45.138;10.038;2022-09-09T00:12:34;18.55;;;11.13;;
47834;SDS011;63086;45.138;10.038;2022-09-09T00:15:12;17.58;;;11.48;;
47834;SDS011;63086;45.138;10.038;2022-09-09T00:22:57;14.85;;;10.38;;
47834;SDS011;63086;45.138;10.038;2022-09-09T00:25:34;16.17;;;11.98;;
47834;SDS011;63086;45.138;10.038;2022-09-09T00:28:18;14.93;;;13.30;;
47834;SDS011;63086;45.138;10.038;2022-09-09T00:30:47;14.63;;;11.05;;
47834;SDS011;63086;45.138;10.038;2022-09-09T00:33:15;17.55;;;11.95;;
47834;SDS011;63086;45.138;10.038;2022-09-09T00:35:51;16.05;;;11.45;;
47834;SDS011;63086;45.138;10.038;2022-09-09T00:38:25;15.35;;;12.50;;
47834;SDS011;63086;45.138;10.038;2022-09-09T00:46:49;21.48;;;12.93;;
47834;SDS011;63086;45.138;10.038;2022-09-09T00:57:25;16.63;;;12.77;;
47834;SDS011;63086;45.138;10.038;2022-09-09T01:00:15;19.65;;;13.93;;
47834;SDS011;63086;45.138;10.038;2022-09-09T01:11:37;17.90;;;13.98;;
47834;SDS011;63086;45.138;10.038;2022-09-09T01:17:09;17.27;;;12.73;;
47834;SDS011;63086;45.138;10.038;2022-09-09T01:25:56;18.15;;;13.60;;
47834;SDS011;63086;45.138;10.038;2022-09-09T01:28:38;18.70;;;13.32;;
47834;SDS011;63086;45.138;10.038;2022-09-09T01:31:11;17.63;;;13.80;;
47834;SDS011;63086;45.138;10.038;2022-09-09T01:33:44;21.02;;;14.95;;
47834;SDS011;63086;45.138;10.038;2022-09-09T01:36:13;19.23;;;14.20;;
47834;SDS011;63086;45.138;10.038;2022-09-09T01:38:52;21.38;;;14.52;;
47834;SDS011;63086;45.138;10.038;2022-09-09T01:41:19;28.42;;;15.85;;
47834;SDS011;63086;45.138;10.038;2022-09-09T01:43:52;19.20;;;15.93;;
47834;SDS011;63086;45.138;10.038;2022-09-09T01:46:21;18.05;;;14.23;;
47834;SDS011;63086;45.138;10.038;2022-09-09T01:48:52;22.33;;;15.38;;
47834;SDS011;63086;45.138;10.038;2022-09-09T01:51:20;21.50;;;15.60;;
47834;SDS011;63086;45.138;10.038;2022-09-09T01:53:48;20.65;;;16.92;;
47834;SDS011;63086;45.138;10.038;2022-09-09T01:56:22;20.52;;;15.55;;
47834;SDS011;63086;45.138;10.038;2022-09-09T02:01:45;19.20;;;16.13;;
47834;SDS011;63086;45.138;10.038;2022-09-09T02:04:18;22.63;;;14.95;;
47834;SDS011;63086;45.138;10.038;2022-09-09T02:07:01;18.88;;;15.07;;
47834;SDS011;63086;45.138;10.038;2022-09-09T02:09:29;17.20;;;13.93;;
47834;SDS011;63086;45.138;10.038;2022-09-09T02:12:01;20.38;;;14.80;;
47834;SDS011;63086;45.138;10.038;2022-09-09T02:14:47;25.63;;;14.73;;
47834;SDS011;63086;45.138;10.038;2022-09-09T02:17:44;19.55;;;14.07;;
47834;SDS011;63086;45.138;10.038;2022-09-09T02:20:16;19.77;;;14.13;;
47834;SDS011;63086;45.138;10.038;2022-09-09T02:22:54;22.30;;;15.25;;
47834;SDS011;63086;45.138;10.038;2022-09-09T02:25:24;22.85;;;16.75;;
47834;SDS011;63086;45.138;10.038;2022-09-09T02:30:25;20.80;;;16.17;;
47834;SDS011;63086;45.138;10.038;2022-09-09T02:32:57;19.60;;;16.75;;
47834;SDS011;63086;45.138;10.038;2022-09-09T02:35:48;22.02;;;15.68;;
47834;SDS011;63086;45.138;10.038;2022-09-09T02:38:18;21.90;;;15.82;;
47834;SDS011;63086;45.138;10.038;2022-09-09T02:40:57;21.02;;;16.42;;
47834;SDS011;63086;45.138;10.038;2022-09-09T02:43:24;21.50;;;17.83;;
47834;SDS011;63086;45.138;10.038;2022-09-09T02:48:35;21.92;;;16.17;;
47834;SDS011;63086;45.138;10.038;2022-09-09T02:51:15;25.65;;;16.23;;
47834;SDS011;63086;45.138;10.038;2022-09-09T02:54:02;19.35;;;16.50;;
47834;SDS011;63086;45.138;10.038;2022-09-09T02:56:31;25.20;;;18.40;;
47834;SDS011;63086;45.138;10.038;2022-09-09T02:59:03;24.15;;;19.17;;
47834;SDS011;63086;45.138;10.038;2022-09-09T03:01:30;27.13;;;18.50;;
47834;SDS011;63086;45.138;10.038;2022-09-09T03:03:59;22.17;;;17.00;;
47834;SDS011;63086;45.138;10.038;2022-09-09T03:06:25;21.27;;;17.17;;
47834;SDS011;63086;45.138;10.038;2022-09-09T03:09:01;20.52;;;18.08;;
47834;SDS011;63086;45.138;10.038;2022-09-09T03:11:29;28.00;;;18.30;;
47834;SDS011;63086;45.138;10.038;2022-09-09T03:13:57;26.02;;;17.35;;
47834;SDS011;63086;45.138;10.038;2022-09-09T03:16:25;23.67;;;17.90;;
47834;SDS011;63086;45.138;10.038;2022-09-09T03:18:53;24.10;;;17.80;;
47834;SDS011;63086;45.138;10.038;2022-09-09T03:21:19;24.15;;;18.42;;
47834;SDS011;63086;45.138;10.038;2022-09-09T03:23:46;23.05;;;18.42;;
47834;SDS011;63086;45.138;10.038;2022-09-09T03:26:12;22.83;;;17.70;;
47834;SDS011;63086;45.138;10.038;2022-09-09T03:28:44;26.13;;;18.92;;
47834;SDS011;63086;45.138;10.038;2022-09-09T03:31:12;27.65;;;20.88;;
47834;SDS011;63086;45.138;10.038;2022-09-09T03:33:41;29.02;;;20.60;;
47834;SDS011;63086;45.138;10.038;2022-09-09T03:36:10;24.17;;;18.45;;
47834;SDS011;63086;45.138;10.038;2022-09-09T03:38:37;24.13;;;19.02;;
47834;SDS011;63086;45.138;10.038;2022-09-09T03:41:04;24.00;;;17.30;;
47834;SDS011;63086;45.138;10.038;2022-09-09T03:43:33;26.10;;;19.42;;
47834;SDS011;63086;45.138;10.038;2022-09-09T03:46:00;25.98;;;20.70;;
47834;SDS011;63086;45.138;10.038;2022-09-09T03:48:28;24.08;;;18.98;;
47834;SDS011;63086;45.138;10.038;2022-09-09T03:50:55;26.95;;;20.65;;
47834;SDS011;63086;45.138;10.038;2022-09-09T03:53:24;32.88;;;20.52;;
47834;SDS011;63086;45.138;10.038;2022-09-09T03:55:52;26.75;;;20.67;;
47834;SDS011;63086;45.138;10.038;2022-09-09T03:58:25;27.40;;;20.98;;
47834;SDS011;63086;45.138;10.038;2022-09-09T04:00:57;25.63;;;20.20;;
47834;SDS011;63086;45.138;10.038;2022-09-09T04:03:28;28.75;;;20.38;;
47834;SDS011;63086;45.138;10.038;2022-09-09T04:05:56;28.15;;;19.55;;
47834;SDS011;63086;45.138;10.038;2022-09-09T04:08:27;26.08;;;20.63;;
47834;SDS011;63086;45.138;10.038;2022-09-09T04:10:54;31.67;;;21.48;;
47834;SDS011;63086;45.138;10.038;2022-09-09T04:13:24;28.13;;;21.02;;
47834;SDS011;63086;45.138;10.038;2022-09-09T04:15:51;29.52;;;20.42;;
47834;SDS011;63086;45.138;10.038;2022-09-09T04:18:19;28.08;;;18.90;;
47834;SDS011;63086;45.138;10.038;2022-09-09T04:20:48;27.50;;;19.70;;
47834;SDS011;63086;45.138;10.038;2022-09-09T04:23:17;26.17;;;20.25;;
47834;SDS011;63086;45.138;10.038;2022-09-09T04:25:46;26.27;;;20.02;;
47834;SDS011;63086;45.138;10.038;2022-09-09T04:28:14;28.45;;;20.35;;
47834;SDS011;63086;45.138;10.038;2022-09-09T04:30:42;29.48;;;21.65;;
47834;SDS011;63086;45.138;10.038;2022-09-09T04:33:09;29.15;;;21.10;;
47834;SDS011;63086;45.138;10.038;2022-09-09T04:35:37;31.48;;;20.95;;
47834;SDS011;63086;45.138;10.038;2022-09-09T04:38:04;23.90;;;20.48;;
47834;SDS011;63086;45.138;10.038;2022-09-09T04:40:34;26.30;;;20.52;;
47834;SDS011;63086;45.138;10.038;2022-09-09T04:43:02;27.40;;;19.33;;
47834;SDS011;63086;45.138;10.038;2022-09-09T04:45:31;25.52;;;20.15;;
47834;SDS011;63086;45.138;10.038;2022-09-09T04:47:58;29.48;;;18.75;;
47834;SDS011;63086;45.138;10.038;2022-09-09T04:50:24;25.67;;;19.73;;
47834;SDS011;63086;45.138;10.038;2022-09-09T04:53:04;26.80;;;20.13;;
47834;SDS011;63086;45.138;10.038;2022-09-09T04:55:31;24.10;;;19.90;;
47834;SDS011;63086;45.138;10.038;2022-09-09T04:58:03;23.88;;;18.08;;
47834;SDS011;63086;45.138;10.038;2022-09-09T05:00:31;24.33;;;19.00;;
47834;SDS011;63086;45.138;10.038;2022-09-09T05:03:04;26.77;;;19.98;;
47834;SDS011;63086;45.138;10.038;2022-09-09T05:05:32;25.65;;;18.20;;
47834;SDS011;63086;45.138;10.038;2022-09-09T05:08:03;25.58;;;19.23;;
47834;SDS011;63086;45.138;10.038;2022-09-09T05:10:31;22.15;;;18.40;;
47834;SDS011;63086;45.138;10.038;2022-09-09T05:12:58;26.20;;;16.95;;
47834;SDS011;63086;45.138;10.038;2022-09-09T05:15:28;19.92;;;17.15;;
47834;SDS011;63086;45.138;10.038;2022-09-09T05:17:58;26.52;;;17.42;;
47834;SDS011;63086;45.138;10.038;2022-09-09T05:20:27;22.55;;;16.67;;
47834;SDS011;63086;45.138;10.038;2022-09-09T05:22:54;27.38;;;18.70;;
47834;SDS011;63086;45.138;10.038;2022-09-09T05:25:22;23.45;;;17.08;;
47834;SDS011;63086;45.138;10.038;2022-09-09T05:27:54;27.00;;;19.20;;
47834;SDS011;63086;45.138;10.038;2022-09-09T05:30:20;24.48;;;17.20;;
47834;SDS011;63086;45.138;10.038;2022-09-09T05:32:50;28.75;;;18.55;;
47834;SDS011;63086;45.138;10.038;2022-09-09T05:35:17;27.80;;;18.10;;
47834;SDS011;63086;45.138;10.038;2022-09-09T05:37:45;23.60;;;16.45;;
47834;SDS011;63086;45.138;10.038;2022-09-09T05:40:12;24.90;;;16.73;;
47834;SDS011;63086;45.138;10.038;2022-09-09T05:42:39;26.05;;;19.23;;
47834;SDS011;63086;45.138;10.038;2022-09-09T05:45:07;22.50;;;16.95;;
47834;SDS011;63086;45.138;10.038;2022-09-09T05:47:35;23.20;;;17.90;;
47834;SDS011;63086;45.138;10.038;2022-09-09T05:50:04;24.48;;;16.23;;
47834;SDS011;63086;45.138;10.038;2022-09-09T05:52:31;26.38;;;17.83;;
47834;SDS011;63086;45.138;10.038;2022-09-09T05:54:58;27.70;;;18.50;;
47834;SDS011;63086;45.138;10.038;2022-09-09T05:57:25;23.27;;;16.85;;
47834;SDS011;63086;45.138;10.038;2022-09-09T05:59:51;22.85;;;17.50;;
47834;SDS011;63086;45.138;10.038;2022-09-09T06:02:19;26.05;;;18.58;;
47834;SDS011;63086;45.138;10.038;2022-09-09T06:04:45;28.67;;;19.75;;
47834;SDS011;63086;45.138;10.038;2022-09-09T06:07:12;22.98;;;16.80;;
47834;SDS011;63086;45.138;10.038;2022-09-09T06:09:40;24.63;;;18.17;;
47834;SDS011;63086;45.138;10.038;2022-09-09T06:12:07;26.38;;;17.13;;
47834;SDS011;63086;45.138;10.038;2022-09-09T06:14:35;28.42;;;16.50;;
47834;SDS011;63086;45.138;10.038;2022-09-09T06:17:02;26.10;;;17.40;;
47834;SDS011;63086;45.138;10.038;2022-09-09T06:19:30;25.08;;;16.40;;
47834;SDS011;63086;45.138;10.038;2022-09-09T06:21:58;20.63;;;15.63;;
47834;SDS011;63086;45.138;10.038;2022-09-09T06:24:26;22.60;;;16.00;;
47834;SDS011;63086;45.138;10.038;2022-09-09T06:26:53;27.60;;;16.73;;
47834;SDS011;63086;45.138;10.038;2022-09-09T06:29:22;28.95;;;17.88;;
47834;SDS011;63086;45.138;10.038;2022-09-09T06:31:50;26.33;;;17.10;;
47834;SDS011;63086;45.138;10.038;2022-09-09T06:34:20;26.10;;;16.77;;
47834;SDS011;63086;45.138;10.038;2022-09-09T06:36:50;24.48;;;16.98;;
47834;SDS011;63086;45.138;10.038;2022-09-09T06:39:17;27.38;;;17.40;;
47834;SDS011;63086;45.138;10.038;2022-09-09T06:41:44;21.75;;;17.20;;
47834;SDS011;63086;45.138;10.038;2022-09-09T06:44:33;26.25;;;16.02;;
47834;SDS011;63086;45.138;10.038;2022-09-09T06:47:00;31.10;;;19.50;;
47834;SDS011;63086;45.138;10.038;2022-09-09T06:49:27;23.88;;;16.50;;
47834;SDS011;63086;45.138;10.038;2022-09-09T06:51:53;26.45;;;17.17;;
47834;SDS011;63086;45.138;10.038;2022-09-09T06:54:19;21.73;;;14.55;;
47834;SDS011;63086;45.138;10.038;2022-09-09T06:56:47;22.90;;;16.08;;
47834;SDS011;63086;45.138;10.038;2022-09-09T06:59:21;22.05;;;16.85;;
47834;SDS011;63086;45.138;10.038;2022-09-09T07:01:48;22.33;;;16.27;;
47834;SDS011;63086;45.138;10.038;2022-09-09T07:04:17;22.70;;;16.25;;
47834;SDS011;63086;45.138;10.038;2022-09-09T07:06:45;22.58;;;15.38;;
47834;SDS011;63086;45.138;10.038;2022-09-09T07:09:16;23.48;;;16.48;;
47834;SDS011;63086;45.138;10.038;2022-09-09T07:11:49;20.30;;;15.40;;
47834;SDS011;63086;45.138;10.038;2022-09-09T07:14:19;24.35;;;15.27;;
47834;SDS011;63086;45.138;10.038;2022-09-09T07:16:51;20.90;;;15.73;;
47834;SDS011;63086;45.138;10.038;2022-09-09T07:19:18;24.55;;;15.02;;
47834;SDS011;63086;45.138;10.038;2022-09-09T07:21:48;22.77;;;15.10;;
47834;SDS011;63086;45.138;10.038;2022-09-09T07:24:17;26.85;;;15.70;;
47834;SDS011;63086;45.138;10.038;2022-09-09T07:26:44;19.70;;;14.55;;
47834;SDS011;63086;45.138;10.038;2022-09-09T07:29:12;17.83;;;14.38;;
47834;SDS011;63086;45.138;10.038;2022-09-09T07:31:41;20.63;;;13.98;;
47834;SDS011;63086;45.138;10.038;2022-09-09T07:34:12;23.33;;;15.70;;
47834;SDS011;63086;45.138;10.038;2022-09-09T07:36:40;18.25;;;14.45;;
47834;SDS011;63086;45.138;10.038;2022-09-09T07:39:10;23.58;;;13.85;;
47834;SDS011;63086;45.138;10.038;2022-09-09T07:41:48;22.23;;;14.50;;
47834;SDS011;63086;45.138;10.038;2022-09-09T07:44:18;22.85;;;14.40;;
47834;SDS011;63086;45.138;10.038;2022-09-09T07:46:50;22.55;;;14.63;;
47834;SDS011;63086;45.138;10.038;2022-09-09T07:49:22;21.60;;;14.98;;
47834;SDS011;63086;45.138;10.038;2022-09-09T07:51:48;18.60;;;13.82;;
47834;SDS011;63086;45.138;10.038;2022-09-09T07:54:17;19.05;;;14.13;;
47834;SDS011;63086;45.138;10.038;2022-09-09T07:56:48;17.92;;;13.60;;
47834;SDS011;63086;45.138;10.038;2022-09-09T07:59:15;23.63;;;14.52;;
47834;SDS011;63086;45.138;10.038;2022-09-09T08:01:46;17.23;;;11.20;;
47834;SDS011;63086;45.138;10.038;2022-09-09T08:04:18;17.60;;;11.27;;
47834;SDS011;63086;45.138;10.038;2022-09-09T08:06:57;20.13;;;14.35;;
47834;SDS011;63086;45.138;10.038;2022-09-09T08:09:26;18.20;;;11.82;;
47834;SDS011;63086;45.138;10.038;2022-09-09T08:11:59;16.73;;;12.15;;
47834;SDS011;63086;45.138;10.038;2022-09-09T08:14:28;18.88;;;11.85;;
47834;SDS011;63086;45.138;10.038;2022-09-09T08:16:56;15.50;;;11.80;;
47834;SDS011;63086;45.138;10.038;2022-09-09T08:19:25;19.42;;;12.68;;
47834;SDS011;63086;45.138;10.038;2022-09-09T08:21:55;15.48;;;11.50;;
47834;SDS011;63086;45.138;10.038;2022-09-09T08:24:22;18.13;;;10.98;;
47834;SDS011;63086;45.138;10.038;2022-09-09T08:26:49;15.23;;;10.35;;
47834;SDS011;63086;45.138;10.038;2022-09-09T08:29:18;22.90;;;11.85;;
47834;SDS011;63086;45.138;10.038;2022-09-09T08:31:50;15.05;;;10.00;;
47834;SDS011;63086;45.138;10.038;2022-09-09T08:34:20;16.13;;;10.80;;
47834;SDS011;63086;45.138;10.038;2022-09-09T08:36:49;12.73;;;9.63;;
47834;SDS011;63086;45.138;10.038;2022-09-09T08:39:19;15.63;;;9.85;;
47834;SDS011;63086;45.138;10.038;2022-09-09T08:57:54;5.30;;;1.77;;
47834;SDS011;63086;45.138;10.038;2022-09-09T09:00:26;3.45;;;1.40;;
47834;SDS011;63086;45.138;10.038;2022-09-09T09:03:09;2.95;;;1.38;;
47834;SDS011;63086;45.138;10.038;2022-09-09T09:05:57;3.03;;;0.80;;
47834;SDS011;63086;45.138;10.038;2022-09-09T09:11:17;4.15;;;0.98;;
47834;SDS011;63086;45.138;10.038;2022-09-09T09:16:31;8.75;;;1.35;;
47834;SDS011;63086;45.138;10.038;2022-09-09T09:19:04;6.60;;;1.17;;
47834;SDS011;63086;45.138;10.038;2022-09-09T09:21:34;2.67;;;1.00;;
47834;SDS011;63086;45.138;10.038;2022-09-09T09:27:00;3.28;;;1.10;;
47834;SDS011;63086;45.138;10.038;2022-09-09T09:29:47;3.45;;;0.75;;
47834;SDS011;63086;45.138;10.038;2022-09-09T09:32:16;3.72;;;1.02;;
47834;SDS011;63086;45.138;10.038;2022-09-09T09:35:06;3.13;;;0.68;;
47834;SDS011;63086;45.138;10.038;2022-09-09T09:37:37;2.67;;;0.80;;
47834;SDS011;63086;45.138;10.038;2022-09-09T09:40:14;1.13;;;0.57;;
47834;SDS011;63086;45.138;10.038;2022-09-09T09:42:56;2.00;;;0.60;;
47834;SDS011;63086;45.138;10.038;2022-09-09T09:45:27;2.38;;;0.55;;
47834;SDS011;63086;45.138;10.038;2022-09-09T09:48:08;1.95;;;0.73;;
47834;SDS011;63086;45.138;10.038;2022-09-09T09:53:29;1.83;;;0.70;;
47834;SDS011;63086;45.138;10.038;2022-09-09T09:56:00;3.08;;;0.75;;
47834;SDS011;63086;45.138;10.038;2022-09-09T09:58:30;6.60;;;1.40;;
47834;SDS011;63086;45.138;10.038;2022-09-09T10:01:00;4.65;;;0.65;;
47834;SDS011;63086;45.138;10.038;2022-09-09T10:03:29;3.22;;;0.60;;
47834;SDS011;63086;45.138;10.038;2022-09-09T10:05:58;2.15;;;0.93;;
47834;SDS011;63086;45.138;10.038;2022-09-09T10:08:25;3.78;;;1.08;;
47834;SDS011;63086;45.138;10.038;2022-09-09T10:29:26;2.00;;;1.02;;
47834;SDS011;63086;45.138;10.038;2022-09-09T10:35:29;2.33;;;0.93;;
47834;SDS011;63086;45.138;10.038;2022-09-09T10:38:15;2.90;;;1.38;;
47834;SDS011;63086;45.138;10.038;2022-09-09T10:43:20;3.00;;;1.63;;
47834;SDS011;63086;45.138;10.038;2022-09-09T10:49:08;4.75;;;2.05;;
47834;SDS011;63086;45.138;10.038;2022-09-09T10:56:36;3.22;;;2.05;;
47834;SDS011;63086;45.138;10.038;2022-09-09T10:59:16;3.97;;;1.95;;
47834;SDS011;63086;45.138;10.038;2022-09-09T11:01:57;5.13;;;2.45;;
47834;SDS011;63086;45.138;10.038;2022-09-09T11:04:40;4.10;;;2.10;;
47834;SDS011;63086;45.138;10.038;2022-09-09T11:07:12;4.88;;;2.50;;
47834;SDS011;63086;45.138;10.038;2022-09-09T11:09:50;4.72;;;2.45;;
47834;SDS011;63086;45.138;10.038;2022-09-09T11:12:23;2.90;;;2.47;;
47834;SDS011;63086;45.138;10.038;2022-09-09T11:14:57;3.25;;;1.90;;
47834;SDS011;63086;45.138;10.038;2022-09-09T11:17:33;4.15;;;1.90;;
47834;SDS011;63086;45.138;10.038;2022-09-09T11:20:11;3.75;;;2.28;;
47834;SDS011;63086;45.138;10.038;2022-09-09T11:22:48;4.70;;;2.80;;
47834;SDS011;63086;45.138;10.038;2022-09-09T11:25:28;4.05;;;2.65;;
47834;SDS011;63086;45.138;10.038;2022-09-09T11:36:52;6.33;;;2.60;;
47834;SDS011;63086;45.138;10.038;2022-09-09T11:42:43;3.00;;;2.25;;
47834;SDS011;63086;45.138;10.038;2022-09-09T11:45:30;8.65;;;3.22;;
47834;SDS011;63086;45.138;10.038;2022-09-09T11:47:57;3.35;;;2.80;;
47834;SDS011;63086;45.138;10.038;2022-09-09T11:53:02;5.50;;;2.80;;
47834;SDS011;63086;45.138;10.038;2022-09-09T11:55:32;4.18;;;2.42;;
47834;SDS011;63086;45.138;10.038;2022-09-09T11:58:01;2.95;;;2.30;;
47834;SDS011;63086;45.138;10.038;2022-09-09T12:00:39;6.90;;;2.60;;
47834;SDS011;63086;45.138;10.038;2022-09-09T12:05:58;4.53;;;2.65;;
47834;SDS011;63086;45.138;10.038;2022-09-09T12:08:27;3.15;;;2.65;;
47834;SDS011;63086;45.138;10.038;2022-09-09T12:10:55;5.68;;;2.00;;
47834;SDS011;63086;45.138;10.038;2022-09-09T12:13:26;7.30;;;2.50;;
47834;SDS011;63086;45.138;10.038;2022-09-09T12:15:53;4.47;;;1.90;;
47834;SDS011;63086;45.138;10.038;2022-09-09T12:18:34;6.18;;;2.40;;
47834;SDS011;63086;45.138;10.038;2022-09-09T12:21:05;4.60;;;2.60;;
47834;SDS011;63086;45.138;10.038;2022-09-09T12:23:49;3.47;;;2.00;;
47834;SDS011;63086;45.138;10.038;2022-09-09T12:32:19;3.75;;;1.70;;
47834;SDS011;63086;45.138;10.038;2022-09-09T12:37:28;3.22;;;1.75;;
47834;SDS011;63086;45.138;10.038;2022-09-09T12:40:02;5.03;;;1.65;;
47834;SDS011;63086;45.138;10.038;2022-09-09T12:42:31;4.25;;;1.88;;
47834;SDS011;63086;45.138;10.038;2022-09-09T12:45:01;5.57;;;1.63;;
47834;SDS011;63086;45.138;10.038;2022-09-09T12:50:21;6.75;;;1.48;;
47834;SDS011;63086;45.138;10.038;2022-09-09T12:52:52;3.40;;;1.50;;
47834;SDS011;63086;45.138;10.038;2022-09-09T12:55:21;5.40;;;2.42;;
47834;SDS011;63086;45.138;10.038;2022-09-09T12:58:02;2.90;;;1.73;;
47834;SDS011;63086;45.138;10.038;2022-09-09T13:00:32;4.15;;;1.77;;
47834;SDS011;63086;45.138;10.038;2022-09-09T13:03:13;2.45;;;1.20;;
47834;SDS011;63086;45.138;10.038;2022-09-09T13:05:44;2.67;;;1.10;;
47834;SDS011;63086;45.138;10.038;2022-09-09T13:08:12;3.10;;;1.35;;
47834;SDS011;63086;45.138;10.038;2022-09-09T13:10:44;3.47;;;1.73;;
47834;SDS011;63086;45.138;10.038;2022-09-09T13:13:15;4.03;;;1.40;;
47834;SDS011;63086;45.138;10.038;2022-09-09T13:15:49;5.57;;;1.58;;
47834;SDS011;63086;45.138;10.038;2022-09-09T13:18:22;3.47;;;1.50;;
47834;SDS011;63086;45.138;10.038;2022-09-09T13:20:50;4.55;;;1.95;;
47834;SDS011;63086;45.138;10.038;2022-09-09T13:23:18;5.20;;;1.55;;
47834;SDS011;63086;45.138;10.038;2022-09-09T13:25:53;2.83;;;1.50;;
47834;SDS011;63086;45.138;10.038;2022-09-09T13:28:28;2.72;;;1.17;;
47834;SDS011;63086;45.138;10.038;2022-09-09T13:30:59;4.07;;;1.58;;
47834;SDS011;63086;45.138;10.038;2022-09-09T13:33:34;3.50;;;1.75;;
47834;SDS011;63086;45.138;10.038;2022-09-09T13:41:24;9.55;;;2.05;;
47834;SDS011;63086;45.138;10.038;2022-09-09T13:43:56;40.55;;;6.47;;
47834;SDS011;63086;45.138;10.038;2022-09-09T13:46:39;16.98;;;3.20;;
47834;SDS011;63086;45.138;10.038;2022-09-09T13:51:37;18.77;;;2.85;;
47834;SDS011;63086;45.138;10.038;2022-09-09T13:54:08;20.17;;;3.33;;
47834;SDS011;63086;45.138;10.038;2022-09-09T13:56:36;19.23;;;4.35;;
47834;SDS011;63086;45.138;10.038;2022-09-09T13:59:16;15.00;;;3.63;;
47834;SDS011;63086;45.138;10.038;2022-09-09T14:01:45;10.00;;;2.42;;
47834;SDS011;63086;45.138;10.038;2022-09-09T14:04:12;7.88;;;2.67;;
47834;SDS011;63086;45.138;10.038;2022-09-09T14:06:38;3.05;;;2.03;;
47834;SDS011;63086;45.138;10.038;2022-09-09T14:09:06;5.47;;;2.25;;
47834;SDS011;63086;45.138;10.038;2022-09-09T14:11:33;3.45;;;1.95;;
47834;SDS011;63086;45.138;10.038;2022-09-09T14:14:04;3.35;;;1.98;;
47834;SDS011;63086;45.138;10.038;2022-09-09T14:16:31;4.00;;;1.70;;
47834;SDS011;63086;45.138;10.038;2022-09-09T14:18:57;5.82;;;2.10;;
47834;SDS011;63086;45.138;10.038;2022-09-09T14:21:25;3.28;;;1.90;;
47834;SDS011;63086;45.138;10.038;2022-09-09T14:23:53;5.10;;;2.15;;
47834;SDS011;63086;45.138;10.038;2022-09-09T14:26:20;6.75;;;2.17;;
47834;SDS011;63086;45.138;10.038;2022-09-09T14:28:47;3.22;;;1.80;;
47834;SDS011;63086;45.138;10.038;2022-09-09T14:31:14;9.30;;;2.75;;
47834;SDS011;63086;45.138;10.038;2022-09-09T14:33:41;4.32;;;1.60;;
47834;SDS011;63086;45.138;10.038;2022-09-09T14:36:08;3.53;;;1.60;;
47834;SDS011;63086;45.138;10.038;2022-09-09T14:38:36;6.03;;;1.75;;
47834;SDS011;63086;45.138;10.038;2022-09-09T14:41:08;2.92;;;2.00;;
47834;SDS011;63086;45.138;10.038;2022-09-09T14:43:42;3.75;;;2.22;;
47834;SDS011;63086;45.138;10.038;2022-09-09T14:46:10;4.38;;;1.55;;
47834;SDS011;63086;45.138;10.038;2022-09-09T14:48:38;3.80;;;1.60;;
47834;SDS011;63086;45.138;10.038;2022-09-09T14:51:10;4.57;;;1.98;;
47834;SDS011;63086;45.138;10.038;2022-09-09T14:53:57;3.55;;;1.75;;
47834;SDS011;63086;45.138;10.038;2022-09-09T14:56:25;7.85;;;2.13;;
47834;SDS011;63086;45.138;10.038;2022-09-09T14:58:54;5.38;;;1.73;;
47834;SDS011;63086;45.138;10.038;2022-09-09T15:01:21;6.07;;;1.85;;
47834;SDS011;63086;45.138;10.038;2022-09-09T15:03:49;5.88;;;1.83;;
47834;SDS011;63086;45.138;10.038;2022-09-09T15:06:17;5.75;;;2.28;;
47834;SDS011;63086;45.138;10.038;2022-09-09T15:08:45;4.45;;;1.60;;
47834;SDS011;63086;45.138;10.038;2022-09-09T15:11:13;4.03;;;1.67;;
47834;SDS011;63086;45.138;10.038;2022-09-09T15:13:40;5.38;;;2.17;;
47834;SDS011;63086;45.138;10.038;2022-09-09T15:16:10;3.30;;;1.70;;
47834;SDS011;63086;45.138;10.038;2022-09-09T15:18:40;4.47;;;1.85;;
47834;SDS011;63086;45.138;10.038;2022-09-09T15:21:09;5.47;;;2.20;;
47834;SDS011;63086;45.138;10.038;2022-09-09T15:23:40;2.47;;;1.40;;
47834;SDS011;63086;45.138;10.038;2022-09-09T15:26:07;4.57;;;1.77;;
47834;SDS011;63086;45.138;10.038;2022-09-09T15:28:35;4.30;;;1.98;;
47834;SDS011;63086;45.138;10.038;2022-09-09T15:31:09;5.15;;;1.55;;
47834;SDS011;63086;45.138;10.038;2022-09-09T15:36:31;3.58;;;1.38;;
47834;SDS011;63086;45.138;10.038;2022-09-09T15:39:06;6.55;;;1.80;;
47834;SDS011;63086;45.138;10.038;2022-09-09T15:41:33;3.72;;;1.83;;
47834;SDS011;63086;45.138;10.038;2022-09-09T15:44:00;4.18;;;2.40;;
47834;SDS011;63086;45.138;10.038;2022-09-09T15:46:28;3.72;;;1.65;;
47834;SDS011;63086;45.138;10.038;2022-09-09T15:48:58;7.90;;;1.95;;
47834;SDS011;63086;45.138;10.038;2022-09-09T15:51:43;4.15;;;1.80;;
47834;SDS011;63086;45.138;10.038;2022-09-09T15:54:12;6.05;;;2.00;;
47834;SDS011;63086;45.138;10.038;2022-09-09T15:56:42;4.63;;;1.67;;
47834;SDS011;63086;45.138;10.038;2022-09-09T15:59:09;3.25;;;1.70;;
47834;SDS011;63086;45.138;10.038;2022-09-09T16:01:35;4.45;;;2.47;;
47834;SDS011;63086;45.138;10.038;2022-09-09T16:04:02;3.05;;;1.95;;
47834;SDS011;63086;45.138;10.038;2022-09-09T16:06:29;6.03;;;2.33;;
47834;SDS011;63086;45.138;10.038;2022-09-09T16:08:56;5.47;;;2.58;;
47834;SDS011;63086;45.138;10.038;2022-09-09T16:11:26;4.47;;;2.13;;
47834;SDS011;63086;45.138;10.038;2022-09-09T16:13:54;3.80;;;2.38;;
47834;SDS011;63086;45.138;10.038;2022-09-09T16:16:22;2.92;;;1.60;;
47834;SDS011;63086;45.138;10.038;2022-09-09T16:18:51;6.10;;;2.05;;
47834;SDS011;63086;45.138;10.038;2022-09-09T16:21:21;2.75;;;1.38;;
47834;SDS011;63086;45.138;10.038;2022-09-09T16:23:50;6.13;;;2.03;;
47834;SDS011;63086;45.138;10.038;2022-09-09T16:26:19;2.78;;;1.73;;
47834;SDS011;63086;45.138;10.038;2022-09-09T16:28:45;3.40;;;1.73;;
47834;SDS011;63086;45.138;10.038;2022-09-09T16:31:13;3.92;;;1.70;;
47834;SDS011;63086;45.138;10.038;2022-09-09T16:33:43;3.92;;;1.70;;
47834;SDS011;63086;45.138;10.038;2022-09-09T16:36:10;4.32;;;2.13;;
47834;SDS011;63086;45.138;10.038;2022-09-09T16:38:54;7.13;;;2.40;;
47834;SDS011;63086;45.138;10.038;2022-09-09T16:41:23;3.78;;;1.80;;
47834;SDS011;63086;45.138;10.038;2022-09-09T16:43:54;6.13;;;2.10;;
47834;SDS011;63086;45.138;10.038;2022-09-09T16:46:21;3.72;;;1.80;;
47834;SDS011;63086;45.138;10.038;2022-09-09T16:48:49;5.35;;;1.85;;
47834;SDS011;63086;45.138;10.038;2022-09-09T16:51:18;5.07;;;2.80;;
47834;SDS011;63086;45.138;10.038;2022-09-09T16:53:53;5.53;;;2.30;;
47834;SDS011;63086;45.138;10.038;2022-09-09T16:56:21;7.32;;;3.25;;
47834;SDS011;63086;45.138;10.038;2022-09-09T16:58:53;4.00;;;2.63;;
47834;SDS011;63086;45.138;10.038;2022-09-09T17:01:25;6.78;;;2.60;;
47834;SDS011;63086;45.138;10.038;2022-09-09T17:03:56;8.40;;;3.20;;
47834;SDS011;63086;45.138;10.038;2022-09-09T17:06:23;4.07;;;2.70;;
47834;SDS011;63086;45.138;10.038;2022-09-09T17:08:57;4.95;;;2.20;;
47834;SDS011;63086;45.138;10.038;2022-09-09T17:11:25;5.72;;;2.47;;
47834;SDS011;63086;45.138;10.038;2022-09-09T17:13:52;8.68;;;2.92;;